Elkhart County 4-H Fair Parade 5,000 Road Run

Age Group Results

July 23, 2017


Results By Time to Run www.timetorun.net


Men: Top Finishers 0-12 13-15 16-18 19-24 25-29 30-34 35-39 40-44 45-49 50-54 55-59 60-84
Women: Top Finishers 0-12 13-15 16-18 19-24 25-29 30-34 35-39 40-44 45-49 50-54 55-59 60-84

5K

Top

Female Open Winners

Place Name City Bib No Age Overall Time Back Total Time Pace
1 Kayla Casaletto Goshen IN 574 20 18   19:12.82 6:12/M
Top

Female 12 and under

Place Name City Bib No Age Overall Time Back Total Time Pace
1 Chynzie Howell Goshen IN 676 12 63   22:48.49 7:21/M
2 Hayden Neer Goshen IN 763 12 88 1:20.37 24:08.86 7:47/M
3 Madison Kliewer Bristol IN 694 12 123 3:46.05 26:34.54 8:34/M
4 Makena Weybright Santa Monica CA 847 9 159 5:49.88 28:38.37 9:14/M
5 Hadley Troyer Middlebury IN 833 10 178 6:43.52 29:32.01 9:32/M
6 Zinnia Weybright Santa Monica CA 849 11 200 7:53.68 30:42.17 9:54/M
7 Ainsley Duell Hillsboro KS 617 12 260 13:15.85 36:04.34 11:38/M
8 Danielle Cox South Bend IN 594 10 266 13:51.47 36:39.96 11:49/M
9 Alia Lanzen Littleton CO 702 11 269 14:13.67 37:02.16 11:57/M
10 Amandah Reese Goshen IN 785 7 314 27:50.49 50:38.98 16:20/M
Top

Female 13 to 15

Place Name City Bib No Age Overall Time Back Total Time Pace
1 Gabby Scott Granger IN 809 14 85   24:04.08 7:46/M
2 Grace Ritchie Middlebury IN 789 15 86 0:00.48 24:04.56 7:46/M
3 Clare Ritchie Middlebury IN 787 13 87 0:00.62 24:04.70 7:46/M
4 Hannah Fenwick Three Rivers MI 623 14 103 1:08.73 25:12.81 8:08/M
5 Alison Bache Middlebury IN 542 15 115 2:06.67 26:10.75 8:26/M
6 Yessenia Castillo Goshen IN 578 14 139 3:22.03 27:26.11 8:51/M
7 Morgan Chupp Goshen IN 581 15 148 3:59.24 28:03.32 9:03/M
8 Mckenna Lee Elkhart IN 707 15 156 4:15.24 28:19.32 9:08/M
9 Lydia Nisen Goshen IN 767 13 174 5:15.84 29:19.92 9:27/M
10 Emma Yohn Elkhart IN 861 14 193 6:18.71 30:22.79 9:48/M
11 Chloe Collins Goshen IN 586 13 206 7:09.04 31:13.12 10:04/M
12 Keeton Lebaron Goshen IN 705 13 207 7:18.14 31:22.22 10:07/M
13 Nicole Miller Middlebury IN 745 14 208 7:18.20 31:22.28 10:07/M
14 Hayley Troyer Goshen IN 834 13 209 7:18.27 31:22.35 10:07/M
15 Brooklynn Collins Goshen IN 585 13 233 9:17.56 33:21.64 10:45/M
16 Isabelle Abshire Goshen IN 535 13 245 10:25.72 34:29.80 11:07/M
17 Elexa Stauffer Lancaster PA 822 14 247 10:51.92 34:56.00 11:16/M
18 Rylee Weishaupt Goshen IN 842 13 250 11:08.37 35:12.45 11:21/M
19 Cadence Mast Goshen IN 719 13 251 11:08.97 35:13.05 11:22/M
20 Madeline Garber Goshen IN 637 13 263 12:05.94 36:10.02 11:40/M
21 Megan Gallagher Goshen IN 636 15 279 13:47.05 37:51.13 12:13/M
22 Kylie Miller Goshen IN 744 15 281 13:49.63 37:53.71 12:13/M
23 Brynn Hill Goshen IN 671 15 284 13:55.38 37:59.46 12:15/M
24 Kathryn Wertz Goshen IN 846 15 290 14:37.82 38:41.90 12:29/M
25 Estrella Manzano Elkhart IN 716 13 307 18:06.64 42:10.72 13:36/M
26 Ekaterina Ritchie Middlebury IN 788 13 317 27:13.07 51:17.15 16:33/M
Top

Female 16 to 18

Place Name City Bib No Age Overall Time Back Total Time Pace
1 Hannah Yeakey Goshen IN 857 18 24   19:48.52 6:23/M
2 Dorcas Wingard Topeka IN 852 17 52 2:08.89 21:57.41 7:05/M
3 Yadira Sanchez Goshen IN 803 16 71 3:44.73 23:33.25 7:36/M
4 Calyn Howell Goshen IN 675 18 89 4:22.74 24:11.26 7:48/M
5 Jenna Miller Goshen IN 740 17 90 4:34.35 24:22.87 7:52/M
6 Molly Campbell Elkhart IN 571 17 91 4:34.39 24:22.91 7:52/M
7 Mackenzie Adams Goshen IN 537 17 92 4:34.43 24:22.95 7:52/M
8 Regan Landis Elkhart IN 699 16 104 5:26.41 25:14.93 8:08/M
9 Brey Baltazar Goshen IN 545 18 107 5:46.51 25:35.03 8:15/M
10 Fiona Yeakey Goshen IN 856 16 110 5:57.31 25:45.83 8:18/M
11 Melissa Bailey Goshen IN 544 17 116 6:22.25 26:10.77 8:26/M
12 Mansoorah Kermani Millersburg IN 692 16 121 6:42.24 26:30.76 8:33/M
13 Rowann Hatfield Middlebury IN 660 18 125 6:56.91 26:45.43 8:38/M
14 Abigail Garcia Goshen IN 638 16 141 7:45.40 27:33.92 8:53/M
15 Denisse Aguilar Goshen IN 538 16 149 8:17.35 28:05.87 9:04/M
16 Yadira Diaz Goshen IN 615 17 153 8:25.91 28:14.43 9:06/M
17 Ariana Perez Diener Goshen IN 779 18 183 10:06.01 29:54.53 9:39/M
18 Noel Zak Goshen IN 863 18 184 10:06.13 29:54.65 9:39/M
19 Abby Lee Elkhart IN 706 17 254 15:29.22 35:17.74 11:23/M
20 Kate Atkinson Goshen IN 541 18 257 15:39.84 35:28.36 11:26/M
21 Aby Ordoņez Elkhart IN 772 17 262 16:18.57 36:07.09 11:39/M
22 Josie Walters Goshen IN 840 16 277 18:01.02 37:49.54 12:12/M
23 Haylee Bontrager Goshen IN 560 16 280 18:04.36 37:52.88 12:13/M
24 Sage Kristner Goshen IN 696 16 282 18:09.17 37:57.69 12:15/M
25 Raina Shreiner Barger Goshen IN 817 16 283 18:09.93 37:58.45 12:15/M
26 Ally Olson Goshen IN 771 17 285 18:11.48 38:00.00 12:15/M
27 Brooke Bechtel Goshen IN 551 17 286 18:12.39 38:00.91 12:15/M
28 Asia Niswander Goshen IN 768 16 297 20:44.20 40:32.72 13:05/M
29 Joselyne Sanchez Goshen IN 802 17 298 20:44.99 40:33.51 13:05/M
Top

Female 19 to 24

Place Name City Bib No Age Overall Time Back Total Time Pace
1 Valeria Robles Elkhart IN 793 20 111   25:46.21 8:19/M
2 Sarah Sark Millersburg IN 804 22 114 0:24.33 26:10.54 8:26/M
3 Alyssa Adam Goshen IN 536 23 120 0:41.63 26:27.84 8:32/M
4 Winifred Sceniak Goshen IN 805 19 127 1:07.48 26:53.69 8:40/M
5 Faith Miller Goshen IN 735 20 129 1:10.87 26:57.08 8:42/M
6 Rachel Zentz Goshen IN 867 23 143 1:56.35 27:42.56 8:56/M
7 Bailey Odell Goshen IN 770 19 146 2:13.30 27:59.51 9:02/M
8 Yohana Romero Elkhart IN 796 23 154 2:29.38 28:15.59 9:07/M
9 Anna Nisen Goshen IN 766 19 175 3:34.19 29:20.40 9:28/M
10 Gabrielle Martin Goshen IN 717 21 192 4:36.46 30:22.67 9:48/M
11 Karla Briano Goshen IN 563 20 195 4:41.00 30:27.21 9:49/M
12 Leslie Jarrett Goshen IN 683 20 242 8:27.56 34:13.77 11:02/M
13 Allison Culp Nappanee IN 601 24 244 8:41.82 34:28.03 11:07/M
14 Stephanie McClain Noblesville IN 725 24 249 9:20.32 35:06.53 11:19/M
15 Jade Benton Middlebury IN 555 20 252 9:30.42 35:16.63 11:23/M
16 Cassie Hose Goshen IN 674 23 261 10:19.20 36:05.41 11:38/M
17 Marissa Lehman Goshen IN 708 23 265 10:53.70 36:39.91 11:49/M
18 Chiloe Truex Goshen IN 835 24 267 11:10.22 36:56.43 11:55/M
19 Robyn Hathaway Goshen IN 661 24 270 11:37.30 37:23.51 12:04/M
20 Lexa Magnuson Goshen IN 712 22 291 12:56.42 38:42.63 12:29/M
21 Jordain Cox Elkhart IN 595 23 299 14:49.59 40:35.80 13:05/M
22 Abigail Banda Goshen IN 546 22 319 29:22.53 55:08.74 17:47/M
23 Adriene Hendricks Anderson IN 662 24 320 29:22.54 55:08.75 17:47/M
Top

Female 25 to 29

Place Name City Bib No Age Overall Time Back Total Time Pace
1 Stephanie Burkholder Goshen IN 569 26 99   24:55.52 8:02/M
2 Sarah Toews Goshen IN 830 25 163 3:53.66 28:49.18 9:18/M
3 Samantha Rolon Bremen IN 794 28 182 4:57.34 29:52.86 9:38/M
4 Diana Contreras Goshen IN 588 28 187 5:06.38 30:01.90 9:41/M
5 Erica Ferrufino Notre Dame IN 626 26 197 5:36.74 30:32.26 9:51/M
6 Monica Briano Goshen IN 564 25 203 6:06.37 31:01.89 10:00/M
7 Margaret Short Goshen IN 815 27 225 8:04.01 32:59.53 10:38/M
8 Rebekah Zentz Goshen IN 868 25 235 8:41.53 33:37.05 10:51/M
9 Ashley Williams Elkhart IN 851 27 236 9:03.52 33:59.04 10:58/M
10 Courtney Bowers Goshen IN 561 27 246 9:56.32 34:51.84 11:15/M
11 Dru Mack Millersburg IN 710 26 259 11:02.08 35:57.60 11:36/M
12 Erica Emanuel Goshen IN 620 28 305 17:09.42 42:04.94 13:34/M
13 Dulce Manzano Elkhart IN 715 25 306 17:14.94 42:10.46 13:36/M
14 Jessica Maurer Lagrange IN 723 26 312 23:37.69 48:33.21 15:40/M
Top

Female 30 to 34

Place Name City Bib No Age Overall Time Back Total Time Pace
1 Laura Gillette Goshen IN 644 32 35   20:36.31 6:39/M
2 Reyna Garcia Goshen IN 643 32 70 2:56.55 23:32.86 7:35/M
3 Brittany Muir Goshen IN 758 31 138 6:47.55 27:23.86 8:50/M
4 Erika Leal Goshen IN 704 30 144 7:06.91 27:43.22 8:56/M
5 Maria Garcia Goshen IN 642 30 171 8:37.67 29:13.98 9:25/M
6 Emily Hildenbrand Goshen IN 670 32 172 8:39.81 29:16.12 9:26/M
7 Arica Shetler Goshen IN 814 34 204 10:25.76 31:02.07 10:01/M
8 Heather Mishler Nappanee IN 748 31 205 10:27.84 31:04.15 10:01/M
9 Keri Mitschelen Nappanee IN 751 33 227 12:26.81 33:03.12 10:40/M
10 Amanda Kindel Bristol IN 693 34 232 12:44.46 33:20.77 10:45/M
11 Kara Wenger Wakarusa IN 845 30 237 13:23.59 33:59.90 10:58/M
12 Brooke Yoder Goshen IN 858 34 248 14:20.87 34:57.18 11:16/M
13 Maria De Los An Parra Goshen IN 774 34 271 16:47.99 37:24.30 12:04/M
14 Mary Grimmer Mishawaka IN 657 34 287 17:26.02 38:02.33 12:16/M
15 Kara Sackett Colon MI 799 33 304 21:28.50 42:04.81 13:34/M
Top

Female 35 to 39

Place Name City Bib No Age Overall Time Back Total Time Pace
1 Jamie Cooper Middlebury IN 591 36 151   28:13.49 9:06/M
2 Elvia Abad Goshen IN 532 38 155 0:02.82 28:16.31 9:07/M
3 Jessica Bender Goshen IN 554 39 190 1:59.95 30:13.44 9:45/M
4 Sonny Kliewer Bristol IN 695 35 231 5:07.23 33:20.72 10:45/M
5 Andrea Milne Goshen IN 747 36 255 7:05.33 35:18.82 11:23/M
6 Christina Lanzen Littleton CO 703 36 272 9:14.44 37:27.93 12:05/M
7 Katie Miller New Paris IN 742 37 276 9:33.58 37:47.07 12:11/M
Top

Female 40 to 44

Place Name City Bib No Age Overall Time Back Total Time Pace
1 Nikki Grueser Nappanee IN 658 40 229   33:15.62 10:44/M
2 Olga Ramirez Goshen IN 784 42 253 2:01.68 35:17.30 11:23/M
3 Laura Fletcher Edwardsburg MI 630 43 268 3:42.08 36:57.70 11:55/M
4 Amanda Miller Goshen IN 734 42 293 5:52.30 39:07.92 12:37/M
5 Stephanie Ritchie Middlebury IN 790 44 311 13:49.92 47:05.54 15:11/M
Top

Female 45 to 49

Place Name City Bib No Age Overall Time Back Total Time Pace
1 Chantelle Hurtekant Osceola IN 680 45 102   25:08.35 8:06/M
2 Yuko Baumann Goshen IN 550 48 105 0:07.94 25:16.29 8:09/M
3 Danielle Moreno Middlebury IN 753 49 173 4:09.93 29:18.28 9:27/M
4 Maria Brown Goshen IN 568 46 230 8:10.23 33:18.58 10:45/M
5 Bonnie Stauffer Lancaster PA 821 45 258 10:35.39 35:43.74 11:31/M
6 Lorinda Brew Millersburg IN 562 45 318 29:02.79 54:11.14 17:29/M
Top

Female 50 to 54

Place Name City Bib No Age Overall Time Back Total Time Pace
1 Laura Stringfellow Middlebury IN 823 54 162   28:47.48 9:17/M
2 Tina Sharkey Goshen IN 813 50 222 3:47.74 32:35.22 10:31/M
3 Brenda Toews Goshen IN 829 54 234 4:41.97 33:29.45 10:48/M
Top

Female 55 to 59

Place Name City Bib No Age Overall Time Back Total Time Pace
1 Brenda Hess Goshen IN 667 58 264   36:37.62 11:49/M
2 Dana Mehl Goshen IN 730 57 274 0:56.84 37:34.46 12:07/M
Top

Female 60 to 84

Place Name City Bib No Age Overall Time Back Total Time Pace
1 Ronda Chupp Goshen IN 582 65 292   38:46.82 12:30/M
Top

Male Open Winners

Place Name City Bib No Age Overall Time Back Total Time Pace
1 Atlee Lambright Topeka IN 697 35 1   16:58.40 5:28/M
Top

Male 12 and under

Place Name City Bib No Age Overall Time Back Total Time Pace
1 Jaxon Miller Goshen IN 738 12 38   20:50.28 6:43/M
2 Tommy Claxton Goshen IN 583 12 42 0:11.72 21:02.00 6:47/M
3 Joey Mojica Greenwood IN 752 12 58 1:47.67 22:37.95 7:18/M
4 David Gonzalez Greenwood IN 649 12 60 1:53.75 22:44.03 7:20/M
5 Mikel Cox South Bend IN 597 11 101 4:14.14 25:04.42 8:05/M
6 Brady Abney Goshen IN 534 12 126 6:00.47 26:50.75 8:39/M
7 Matthew Hernandez Elkhartelkhart IN 663 12 157 7:33.45 28:23.73 9:09/M
8 Aidan Bender Goshen IN 553 11 160 7:50.64 28:40.92 9:15/M
9 Kevin Mehl Elkhart IN 732 10 194 9:36.92 30:27.20 9:49/M
10 Jaden Fisher Goshen IN 628 10 216 11:19.11 32:09.39 10:22/M
11 Hudson Scott Goshen IN 810 7 218 11:36.81 32:27.09 10:28/M
12 Brayden Fox Elkhart IN 632 10 224 12:05.87 32:56.15 10:37/M
13 Mason Scott Goshen IN 811 8 273 16:39.23 37:29.51 12:05/M
14 Jose Sanchez Goshen IN 801 12 294 18:20.72 39:11.00 12:38/M
15 Dario Manzano Elkhart IN 714 9 310 25:26.30 46:16.58 14:55/M
Top

Male 13 to 15

Place Name City Bib No Age Overall Time Back Total Time Pace
1 Aj Miller Millersburg IN 733 14 9   18:15.30 5:53/M
2 Bryce Cook Elkhart IN 590 14 13 0:29.74 18:45.04 6:03/M
3 Bryant Grewe Goshen IN 656 15 30 2:11.47 20:26.77 6:35/M
4 Jocsan Barahona Goshen IN 548 14 32 2:14.44 20:29.74 6:36/M
5 Quinten Hunsberger Goshen IN 679 15 36 2:25.89 20:41.19 6:40/M
6 Aaron Yeakey Goshen IN 855 14 44 3:06.94 21:22.24 6:54/M
7 Brady Hunsberger Goshen IN 677 14 47 3:26.43 21:41.73 7:00/M
8 Riley McEachern Elkhart IN 727 14 57 4:21.52 22:36.82 7:17/M
9 Christopher Maldonado Elkhart IN 713 14 226 14:44.46 32:59.76 10:38/M
Top

Male 16 to 18

Place Name City Bib No Age Overall Time Back Total Time Pace
1 Noah Detwiler Middlebury, Indiana IN 612 16 2   17:09.26 5:32/M
2 Garrett McKee Elkhart IN 728 18 3 0:07.32 17:16.58 5:34/M
3 Salvador Escamilla Elkhart IN 621 18 5 0:50.89 18:00.15 5:48/M
4 Jason Barahona Goshen IN 547 17 7 0:59.14 18:08.40 5:51/M
5 Felix Perez Diener Goshen IN 780 16 8 1:05.88 18:15.14 5:53/M
6 Angel Arreola Goshen IN 540 16 10 1:17.14 18:26.40 5:57/M
7 Zach Oyer Goshen IN 773 18 19 2:04.30 19:13.56 6:12/M
8 Irving Suarez Goshen IN 825 17 22 2:13.53 19:22.79 6:15/M
9 Lane Flowers Nappanee IN 631 18 25 2:46.86 19:56.12 6:26/M
10 Jacob Kauffman Goshen IN 690 17 29 3:12.23 20:21.49 6:34/M
11 Julian Moreno Middlebury IN 755 18 73 6:31.91 23:41.17 7:38/M
12 Caleb Zentz Goshen IN 865 18 75 6:37.43 23:46.69 7:40/M
13 Conrad Yoder Goshen IN 859 17 77 6:39.83 23:49.09 7:41/M
14 Lucas Inniger New Paris IN 681 18 80 6:49.34 23:58.60 7:44/M
15 Alex Brovont Elkhart IN 566 18 81 6:49.71 23:58.97 7:44/M
16 Nate Conder Goshen IN 587 18 108 8:26.05 25:35.31 8:15/M
17 Jordan Dreier Goshen IN 616 18 130 9:57.74 27:07.00 8:45/M
18 Michael Phillips Middlebury IN 781 18 198 13:27.27 30:36.53 9:52/M
Top

Male 19 to 24

Place Name City Bib No Age Overall Time Back Total Time Pace
1 Marcus Ray Hershberger Nappanee IN 666 19 11   18:37.17 6:00/M
2 Raul Perez Goshen IN 777 23 26 1:19.30 19:56.47 6:26/M
3 Spencer Roose Goshen IN 797 19 27 1:27.28 20:04.45 6:28/M
4 Spencer Culp Nappanee IN 603 22 31 1:51.54 20:28.71 6:36/M
5 Marvin Schrock Wolcottville IN 808 19 37 2:12.87 20:50.04 6:43/M
6 Joshua Abbs Goshen IN 533 23 39 2:17.58 20:54.75 6:45/M
7 Stefan Musser Vandalia MI 760 20 46 3:01.08 21:38.25 6:59/M
8 Julio Perez Barcenas Elkhart IN 778 20 56 3:56.83 22:34.00 7:17/M
9 Alec Brock Millersburg IN 565 20 61 4:07.31 22:44.48 7:20/M
10 Anthony Bontrager Sturgis MI 557 24 76 5:11.84 23:49.01 7:41/M
11 Eric Wenger Goshen IN 844 24 78 5:18.98 23:56.15 7:43/M
12 Tristan Martin Goshen IN 718 24 95 5:54.10 24:31.27 7:55/M
13 Jacob Becker Goshen IN 552 19 106 6:45.43 25:22.60 8:11/M
14 Jed Miller Goshen IN 739 23 124 8:03.45 26:40.62 8:36/M
15 Michael Gonzalez Goshen IN 650 22 137 8:44.47 27:21.64 8:49/M
16 Matthew Zentz Goshen IN 866 20 152 9:36.92 28:14.09 9:06/M
17 Jami Mitcham New Paris IN 749 20 177 10:47.50 29:24.67 9:29/M
18 Mitch Holsopple New Paris IN 673 20 179 11:00.75 29:37.92 9:33/M
19 Seth Hoffman New Paris IN 672 19 180 11:00.87 29:38.04 9:34/M
20 Mitch Dewitt Indianapolis IN 614 23 181 11:01.01 29:38.18 9:34/M
21 Kiran Shaju Winona Lake IN 812 21 202 12:15.57 30:52.74 9:57/M
22 Adrian Torres Goshen IN 831 21 210 12:51.08 31:28.25 10:09/M
23 Johnny Peebles Goshen IN 776 21 239 15:30.66 34:07.83 11:00/M
24 Shawn Gordon Goshen IN 651 24 289 20:04.20 38:41.37 12:29/M
25 Bryan Garcia Goshen IN 639 19 308 24:37.94 43:15.11 13:57/M
Top

Male 25 to 29

Place Name City Bib No Age Overall Time Back Total Time Pace
1 Elmer Schlabach Goshen IN 806 28 12   18:38.55 6:01/M
2 Joas Eash New Paris IN 619 28 28 1:39.62 20:18.17 6:33/M
3 Aaron Graber Etna Green IN 653 28 51 3:16.74 21:55.29 7:04/M
4 Luis Rivera Goshen IN 791 28 59 4:01.09 22:39.64 7:18/M
5 Jeremy Miller New Paris IN 741 28 112 7:08.97 25:47.52 8:19/M
6 Adrian Rosas Greenwood IN 798 26 117 7:36.56 26:15.11 8:28/M
7 Camden Bontrager Syracuse IN 558 27 119 7:45.57 26:24.12 8:31/M
8 Juan Deluna Goshen IN 610 29 140 8:51.15 27:29.70 8:52/M
9 Joe Mehl Goshen IN 731 28 220 13:49.87 32:28.42 10:28/M
10 Timon Nimtz Goshen IN 765 25 221 13:50.21 32:28.76 10:28/M
11 Jesse Blauw Kalamazoo MI 556 26 241 15:33.54 34:12.09 11:02/M
12 Carmelo Castillo Chicago IL 576 26 243 15:36.27 34:14.82 11:03/M
13 Jordan Cox Elkhart IN 596 25 300 21:57.37 40:35.92 13:05/M
14 Benjamin Cantu Goshen IN 572 26 302 22:24.77 41:03.32 13:15/M
15 Nabor Mayorga Elkhart IN 724 27 309 27:37.74 46:16.29 14:55/M
16 Jesse Maurer Lagrange IN 722 26 313 29:55.97 48:34.52 15:40/M
Top

Male 30 to 34

Place Name City Bib No Age Overall Time Back Total Time Pace
1 Galen Miller Goshen IN 736 30 48   21:43.02 7:00/M
2 David Teall Goshen IN 827 33 49 0:01.64 21:44.66 7:01/M
3 Floyd Mast New Paris IN 720 30 69 1:46.41 23:29.43 7:35/M
4 Scott Gould Goshen IN 652 33 72 1:50.36 23:33.38 7:36/M
5 Greg Delagrange Westfield IN 609 34 113 4:04.98 25:48.00 8:19/M
6 David Ferris Goshen IN 625 33 150 6:27.99 28:11.01 9:05/M
7 Greg Mueller Goshen IN 757 34 158 6:55.22 28:38.24 9:14/M
8 Matt Walsh Elkhart IN 839 32 168 7:11.79 28:54.81 9:19/M
9 Jaren Weldy Goshen IN 843 31 170 7:26.74 29:09.76 9:24/M
10 Josh Showers Osceola IN 816 31 214 10:06.14 31:49.16 10:16/M
11 Brandon Hartzler Middlebury IN 659 30 215 10:18.67 32:01.69 10:20/M
12 Matthew Wagner Elkhart IN 837 33 238 12:24.51 34:07.53 11:00/M
13 Mark Hiegel Augusta MI 669 34 240 12:27.75 34:10.77 11:01/M
Top

Male 35 to 39

Place Name City Bib No Age Overall Time Back Total Time Pace
1 Rustin Nyce Goshen IN 769 37 15   19:01.55 6:08/M
2 Fg Garcia Goshen IN 640 35 16 0:02.20 19:03.75 6:09/M
3 Mark Davidhizar Elkhart IN 604 35 21 0:19.44 19:20.99 6:14/M
4 Michael Cruz Goshen IN 600 35 33 1:28.71 20:30.26 6:37/M
5 Leon Mullet Goshen IN 759 35 41 1:57.19 20:58.74 6:46/M
6 Zeb Wall Elkhart IN 838 39 50 2:50.86 21:52.41 7:03/M
7 Kurt Miller Middlebury IN 743 36 68 4:21.90 23:23.45 7:33/M
8 Trent Stump Nappanee IN 824 35 82 4:59.00 24:00.55 7:45/M
9 Enrique Madrid Goshen IN 711 38 118 7:14.76 26:16.31 8:28/M
10 Jerry Wolf South Bend IN 853 39 135 8:14.01 27:15.56 8:47/M
11 Michael Zavor South Bend IN 864 39 136 8:18.46 27:20.01 8:49/M
12 Andrew Mehl Elkhart IN 729 35 189 11:09.52 30:11.07 9:44/M
13 Bill Mitschelen Nappanee IN 750 36 228 14:01.95 33:03.50 10:40/M
14 Spencer Craigo Elkhart IN 598 35 288 19:35.94 38:37.49 12:27/M
Top

Male 40 to 44

Place Name City Bib No Age Overall Time Back Total Time Pace
1 Nathan Jones Middlebury IN 686 40 4   17:21.33 5:36/M
2 Hermilo Garcia Warsaw IN 641 41 20 1:54.64 19:15.97 6:13/M
3 Juan Cortez Goshen IN 593 40 54 4:45.38 22:06.71 7:08/M
4 Steve Freeto Goshen IN 634 42 55 4:48.52 22:09.85 7:09/M
5 Jerry Chupp Goshen IN 580 40 65 5:36.50 22:57.83 7:24/M
6 Sam Miller Goshen IN 746 44 66 5:40.55 23:01.88 7:25/M
7 Fermin Cortez Goshen IN 592 41 67 5:49.53 23:10.86 7:28/M
8 Galen Mast Goshen IN 721 44 74 6:21.04 23:42.37 7:39/M
9 Shane Hernley Goshen IN 665 43 84 6:42.21 24:03.54 7:45/M
10 Ignacio Ramirez Elkhart IN 783 41 94 7:08.37 24:29.70 7:54/M
11 Caleb Hunsberger Goshen IN 678 40 122 9:12.65 26:33.98 8:34/M
12 Ryan Wolf South Bend IN 854 44 128 9:34.07 26:55.40 8:41/M
13 Dan McEachern Elkhart IN 726 43 185 12:34.50 29:55.83 9:39/M
14 Doug Troyer Middlebury IN 832 40 186 12:35.69 29:57.02 9:40/M
15 Bryan Yohn Elkhart IN 860 42 201 13:23.19 30:44.52 9:55/M
16 Matt Fisher Goshen IN 629 43 217 14:53.97 32:15.30 10:24/M
17 Jason Moshier Goshen IN 756 42 223 15:28.39 32:49.72 10:35/M
Top

Male 45 to 49

Place Name City Bib No Age Overall Time Back Total Time Pace
1 Peter Casaletto Goshen IN 575 46 6   18:05.08 5:50/M
2 Teague Weybright Santa Monica CA 848 46 14 0:46.27 18:51.35 6:05/M
3 Alvaro Romero Elkhart IN 795 46 23 1:38.32 19:43.40 6:22/M
4 Jeff Dunithan Syracuse IN 618 49 34 2:30.71 20:35.79 6:38/M
5 Giovanni Lopez Elkhart IN 709 45 64 4:49.41 22:54.49 7:23/M
6 Ken Cross Goshen IN 599 47 97 6:32.72 24:37.80 7:56/M
7 Terry Jones Goshen IN 687 45 131 9:04.93 27:10.01 8:46/M
8 Doug Brown Goshen IN 567 48 134 9:09.35 27:14.43 8:47/M
9 Brian Davis Burr Ridge IL 607 45 191 12:08.67 30:13.75 9:45/M
10 Jaime Moreno Middlebury IN 754 47 199 12:31.53 30:36.61 9:52/M
11 Evan Bontrager Goshen IN 559 49 212 13:32.76 31:37.84 10:12/M
12 Randy Reese Goshen IN 786 47 219 14:23.15 32:28.23 10:28/M
13 Brian Cook Elkhart IN 589 46 256 17:14.83 35:19.91 11:24/M
14 Jude Barger Goshen IN 549 45 301 22:33.00 40:38.08 13:06/M
Top

Male 50 to 54

Place Name City Bib No Age Overall Time Back Total Time Pace
1 Jose De Jesus Davila-Ortiz Goshen IN 606 51 45   21:24.33 6:54/M
2 Mike Cleveland Wakarusa IN 584 52 109 4:17.13 25:41.46 8:17/M
3 Ron Landis Elkhart IN 700 53 132 5:45.87 27:10.20 8:46/M
4 Allen Robinson Goshen IN 792 52 142 6:13.70 27:38.03 8:55/M
5 Tom Cartmel Goshen IN 573 53 147 6:36.79 28:01.12 9:02/M
6 Mike Sackett Bronson MI 800 51 188 8:39.96 30:04.29 9:42/M
7 Mark Myers Syracuse IN 761 54 213 10:15.20 31:39.53 10:13/M
8 Jeff Culp Nappanee IN 602 52 275 16:10.44 37:34.77 12:07/M
9 Alberto Jimenez Goshen IN 684 53 295 17:48.67 39:13.00 12:39/M
Top

Male 55 to 59

Place Name City Bib No Age Overall Time Back Total Time Pace
1 Ruben Falcon Goshen IN 622 57 40   20:57.61 6:45/M
2 Randall Jacobs Goshen IN 682 55 43 0:17.06 21:14.67 6:51/M
3 Thomas Smith Goshen IN 818 56 62 1:47.68 22:45.29 7:20/M
4 Kevin Lambright Shipshewana IN 698 58 83 3:04.69 24:02.30 7:45/M
5 Raymundo Davila Goshen IN 605 58 93 3:27.77 24:25.38 7:53/M
6 Brian Turco Elkhart IN 836 57 100 4:02.36 24:59.97 8:04/M
7 Steve Chamness Elkhart IN 579 59 133 6:15.84 27:13.45 8:47/M
8 Mark Tanka Chicago IL 826 57 165 7:53.33 28:50.94 9:18/M
9 Max Soto Goshen IN 819 56 166 7:53.78 28:51.39 9:18/M
10 Jose Luis De Luna Goshen IN 608 57 167 7:56.94 28:54.55 9:19/M
11 Andrew Williams Bristol IN 850 59 196 9:30.22 30:27.83 9:49/M
12 Mark Zak Goshen IN 862 58 303 20:46.74 41:44.35 13:28/M
13 Geff Fisher Bristol IN 627 59 315 29:41.39 50:39.00 16:20/M
Top

Male 60 to 84

Place Name City Bib No Age Overall Time Back Total Time Pace
1 Mark Furkis Goshen IN 635 61 17   19:08.65 6:10/M
2 Ivor Niggebrugge Mishawaka IN 764 63 53 2:52.08 22:00.73 7:06/M
3 Winford Jones Shipshewana IN 688 68 79 4:48.55 23:57.20 7:44/M
4 Dean Warstler Syracuse IN 841 61 96 5:23.78 24:32.43 7:55/M
5 Ken Nafziger Harrisonburg VA 762 61 98 5:41.99 24:50.64 8:01/M
6 Jeff Lantzer Goshen IN 701 62 145 8:45.72 27:54.37 9:00/M
7 David Baer Goshen IN 543 61 161 9:33.73 28:42.38 9:15/M
8 Ruperto Hernandez Elkhartelkhart IN 664 69 164 9:40.71 28:49.36 9:18/M
9 Gary Miller Shipshewana IN 737 63 169 9:53.91 29:02.56 9:22/M
10 Robert Hess Goshen IN 668 66 176 10:15.29 29:23.94 9:29/M
11 Arden Graber Etna Green IN 654 67 211 12:20.99 31:29.64 10:09/M
12 Dave Ferency South Bend IN 624 73 278 18:42.34 37:50.99 12:12/M
13 Bob Glick Goshen IN 648 65 296 20:06.14 39:14.79 12:39/M
14 Lawrence Scholl Goshen IN 807 84 316 31:58.03 51:06.68 16:29/M
15 Joseph Dervin Indianapolis IN 611 73 321 37:01.82 56:10.47 18:07/M